Time;durP1;ratioP1;P1;durP2;ratioP2;P2;SDS_P1;SDS_P2;PMS_P1;PMS_P2;Temp;Humidity;BMP_temperature;BMP_pressure;BME280_temperature;BME280_humidity;BME280_pressure;Samples;Min_cycle;Max_cycle;Signal;HPM_P1;HPM_P2
2023/10/22 00:00:29;;;;;;;4.45;1.08;;;12.80;99.90;;;;;;4245487;28;20066;-82
2023/10/22 00:02:30;;;;;;;5.65;1.00;;;12.80;99.90;;;;;;4234415;28;20491;-82
2023/10/22 00:04:31;;;;;;;6.03;0.90;;;12.80;99.90;;;;;;4227655;28;20499;-82
2023/10/22 00:06:32;;;;;;;3.25;0.70;;;12.80;99.90;;;;;;4216403;28;20484;-82
2023/10/22 00:08:33;;;;;;;6.70;0.95;;;12.70;99.90;;;;;;4245369;28;20043;-81
2023/10/22 00:10:33;;;;;;;6.75;0.90;;;12.70;99.90;;;;;;4233907;28;20139;-82
2023/10/22 00:12:34;;;;;;;4.68;1.13;;;12.70;99.90;;;;;;4246514;28;20398;-82
2023/10/22 00:14:35;;;;;;;3.60;0.98;;;12.70;99.90;;;;;;4233714;28;20051;-82
2023/10/22 00:16:36;;;;;;;4.57;1.08;;;12.70;99.90;;;;;;4246779;27;20047;-81
2023/10/22 00:18:36;;;;;;;3.83;1.00;;;12.70;99.90;;;;;;4251738;27;20565;-82
2023/10/22 00:20:38;;;;;;;2.80;0.88;;;12.70;99.90;;;;;;4218103;28;20044;-81
2023/10/22 00:22:39;;;;;;;1.63;0.82;;;12.70;99.90;;;;;;4231308;28;20084;-81
2023/10/22 00:24:41;;;;;;;4.28;0.90;;;12.70;99.90;;;;;;4249495;27;20043;-81
2023/10/22 00:26:41;;;;;;;3.55;0.70;;;12.70;99.90;;;;;;4217156;28;20068;-81
2023/10/22 00:28:42;;;;;;;8.88;1.48;;;12.70;99.90;;;;;;4232052;28;20506;-81
2023/10/22 00:30:46;;;;;;;5.15;1.02;;;12.70;99.90;;;;;;4250299;27;20072;-81
2023/10/22 00:32:47;;;;;;;3.83;0.95;;;12.70;99.90;;;;;;4247984;27;20125;-81
2023/10/22 00:34:47;;;;;;;5.72;0.60;;;12.70;99.90;;;;;;4245728;27;20043;-81
2023/10/22 00:36:48;;;;;;;5.65;0.90;;;12.80;99.90;;;;;;4216705;28;20385;-81
2023/10/22 00:38:49;;;;;;;6.40;0.82;;;12.80;99.90;;;;;;4233942;28;20581;-81
2023/10/22 00:40:50;;;;;;;5.70;1.52;;;12.80;99.90;;;;;;4251019;27;20126;-81
2023/10/22 00:42:51;;;;;;;5.72;0.95;;;12.80;99.90;;;;;;4215425;28;20131;-80
2023/10/22 00:44:51;;;;;;;5.10;0.68;;;12.80;99.90;;;;;;4250202;27;20501;-81
2023/10/22 00:46:53;;;;;;;4.53;1.02;;;12.80;99.90;;;;;;4233128;27;20048;-81
2023/10/22 00:48:55;;;;;;;4.97;0.95;;;12.80;99.90;;;;;;4249844;27;20092;-81
2023/10/22 00:50:56;;;;;;;5.70;1.25;;;12.80;99.90;;;;;;4234120;27;20447;-81
2023/10/22 00:52:57;;;;;;;4.90;0.80;;;12.80;99.90;;;;;;4249448;27;20483;-81
2023/10/22 00:54:59;;;;;;;1.70;0.65;;;12.80;99.90;;;;;;4234141;27;20138;-81
2023/10/22 00:57:02;;;;;;;4.55;1.25;;;12.80;99.90;;;;;;4248939;27;20046;-81
2023/10/22 00:59:02;;;;;;;2.72;0.80;;;12.80;99.90;;;;;;4235003;27;20044;-81
2023/10/22 01:01:07;;;;;;;2.22;0.65;;;12.80;99.90;;;;;;4247966;27;20031;-81
2023/10/22 01:03:08;;;;;;;1.92;0.57;;;12.80;99.90;;;;;;4217523;28;20526;-81
2023/10/22 01:05:09;;;;;;;2.92;0.70;;;12.80;99.90;;;;;;4247612;27;20047;-81
2023/10/22 01:07:10;;;;;;;5.85;0.65;;;12.80;99.90;;;;;;4242843;27;20130;-81
2023/10/22 01:09:11;;;;;;;5.82;0.95;;;12.80;99.90;;;;;;4247389;27;20047;-81
2023/10/22 01:11:12;;;;;;;6.40;1.20;;;12.90;99.90;;;;;;4236106;27;20039;-81
2023/10/22 01:13:14;;;;;;;4.47;0.70;;;12.90;99.90;;;;;;4246592;27;20046;-81
2023/10/22 01:15:15;;;;;;;5.60;0.85;;;12.90;99.90;;;;;;4235803;27;20054;-81
2023/10/22 01:17:16;;;;;;;3.15;0.85;;;12.90;99.90;;;;;;4250040;27;20039;-81
2023/10/22 01:19:17;;;;;;;4.82;0.70;;;13.00;99.90;;;;;;4246087;27;20035;-81
2023/10/22 01:21:18;;;;;;;2.28;0.77;;;13.00;99.90;;;;;;4240305;27;20118;-81
2023/10/22 01:23:19;;;;;;;5.80;0.90;;;13.00;99.90;;;;;;4236992;27;20027;-81
2023/10/22 01:25:19;;;;;;;2.47;0.50;;;13.00;99.90;;;;;;4245077;27;20137;-81
2023/10/22 01:27:20;;;;;;;3.17;0.50;;;13.00;99.90;;;;;;4237143;27;20092;-81
2023/10/22 01:29:21;;;;;;;2.25;0.90;;;13.00;99.90;;;;;;4244239;27;20040;-81
2023/10/22 01:31:22;;;;;;;3.50;0.40;;;13.00;99.90;;;;;;4237118;27;20043;-81
2023/10/22 01:33:23;;;;;;;2.42;0.77;;;13.10;99.90;;;;;;4226739;28;20048;-81
2023/10/22 01:35:24;;;;;;;3.60;0.88;;;13.10;99.90;;;;;;4236820;27;20050;-81
2023/10/22 01:37:25;;;;;;;3.90;0.80;;;13.00;99.90;;;;;;4244516;27;20530;-81
2023/10/22 01:39:26;;;;;;;3.42;0.60;;;13.00;99.90;;;;;;4237620;27;20042;-81
2023/10/22 01:41:26;;;;;;;2.92;0.70;;;13.00;99.90;;;;;;4244510;27;20042;-81
2023/10/22 01:43:27;;;;;;;3.00;0.85;;;13.00;99.90;;;;;;4237525;27;20111;-81
2023/10/22 01:45:29;;;;;;;2.95;0.55;;;13.00;99.90;;;;;;4244201;27;20044;-80
2023/10/22 01:47:29;;;;;;;1.15;0.35;;;13.00;99.90;;;;;;4247117;27;20922;-81
2023/10/22 01:49:30;;;;;;;7.88;0.50;;;12.90;99.90;;;;;;4243962;27;20051;-81
2023/10/22 01:51:31;;;;;;;1.25;0.43;;;12.90;99.90;;;;;;4238408;27;20059;-81
2023/10/22 01:53:33;;;;;;;1.67;0.47;;;12.90;99.90;;;;;;4243640;27;20047;-81
2023/10/22 01:55:33;;;;;;;1.40;0.50;;;12.80;99.90;;;;;;4238295;27;20035;-81
2023/10/22 01:57:34;;;;;;;2.45;0.50;;;12.80;99.90;;;;;;4248957;27;20473;-81
2023/10/22 01:59:37;;;;;;;4.18;0.60;;;12.80;99.90;;;;;;4243168;27;20093;-81
2023/10/22 02:01:39;;;;;;;4.65;0.73;;;12.70;99.90;;;;;;4238696;27;20039;-81
2023/10/22 02:03:45;;;;;;;3.63;0.73;;;12.70;99.90;;;;;;4242451;27;20043;-81
2023/10/22 02:05:47;;;;;;;3.63;0.80;;;12.70;99.90;;;;;;4246744;27;20099;-81
2023/10/22 02:07:47;;;;;;;4.10;0.77;;;12.60;99.90;;;;;;4241491;27;20434;-81
2023/10/22 02:09:48;;;;;;;3.47;0.75;;;12.60;99.90;;;;;;4240265;27;20050;-81
2023/10/22 02:11:50;;;;;;;2.17;0.50;;;12.50;99.90;;;;;;4240486;27;20039;-81
2023/10/22 02:13:51;;;;;;;3.10;0.65;;;12.50;99.90;;;;;;4240078;27;20039;-81
2023/10/22 02:15:51;;;;;;;1.92;0.68;;;12.40;99.90;;;;;;4237472;27;20637;-81
2023/10/22 02:17:52;;;;;;;5.60;0.80;;;12.40;99.90;;;;;;4257215;27;20503;-81
2023/10/22 02:19:53;;;;;;;5.68;0.60;;;12.30;99.90;;;;;;4245882;27;20049;-81
2023/10/22 02:21:54;;;;;;;8.38;0.50;;;12.30;99.90;;;;;;4224278;28;20422;-82
2023/10/22 02:23:55;;;;;;;3.15;0.98;;;12.20;99.90;;;;;;4248291;27;20047;-81
2023/10/22 02:25:56;;;;;;;3.03;0.60;;;12.20;99.90;;;;;;4221238;28;20044;-81
2023/10/22 02:27:57;;;;;;;2.15;1.13;;;12.20;99.90;;;;;;4223168;28;20475;-81
2023/10/22 02:29:58;;;;;;;2.83;0.60;;;12.20;99.90;;;;;;4221083;28;20412;-81
2023/10/22 02:31:58;;;;;;;3.60;0.80;;;12.10;99.90;;;;;;4241155;27;20483;-81
2023/10/22 02:34:06;;;;;;;5.18;0.77;;;12.10;99.90;;;;;;4220397;28;20059;-81
2023/10/22 02:36:07;;;;;;;3.90;1.13;;;12.00;99.90;;;;;;4242720;27;20047;-82
2023/10/22 02:38:10;;;;;;;6.53;0.80;;;12.00;99.90;;;;;;4219573;28;20535;-81
2023/10/22 02:40:17;;;;;;;4.13;0.70;;;12.00;99.90;;;;;;4242516;27;20530;-82
2023/10/22 02:42:18;;;;;;;3.05;0.65;;;12.00;99.90;;;;;;4236045;27;20043;-82
2023/10/22 02:44:19;;;;;;;5.65;1.27;;;12.00;99.90;;;;;;4243761;27;20119;-81
2023/10/22 02:46:19;;;;;;;5.18;0.70;;;12.00;99.90;;;;;;4235857;27;20071;-81
2023/10/22 02:48:21;;;;;;;3.33;0.60;;;11.90;99.90;;;;;;4243946;27;20054;-81
2023/10/22 02:50:24;;;;;;;3.45;1.20;;;11.90;99.90;;;;;;4235027;27;20395;-81
2023/10/22 02:52:26;;;;;;;5.63;0.85;;;11.90;99.90;;;;;;4244737;27;20089;-81
2023/10/22 02:54:28;;;;;;;1.65;0.85;;;11.80;99.90;;;;;;4234979;27;20437;-82
2023/10/22 02:56:28;;;;;;;2.40;1.08;;;11.80;99.90;;;;;;4245303;27;20115;-81
2023/10/22 02:58:30;;;;;;;4.57;1.25;;;11.80;99.90;;;;;;4234451;27;20457;-81
2023/10/22 03:00:30;;;;;;;2.95;1.13;;;11.80;99.90;;;;;;4245527;27;20490;-81
2023/10/22 03:02:31;;;;;;;3.97;0.90;;;11.80;99.90;;;;;;4233387;28;20122;-81
2023/10/22 03:04:32;;;;;;;1.90;0.95;;;11.80;99.90;;;;;;4245770;27;20043;-81
2023/10/22 03:06:33;;;;;;;1.75;0.77;;;11.70;99.90;;;;;;4233539;27;20475;-81
2023/10/22 03:08:35;;;;;;;3.05;1.08;;;11.80;99.90;;;;;;4245800;27;20122;-81
2023/10/22 03:10:37;;;;;;;3.97;1.10;;;11.80;99.90;;;;;;4233026;27;20093;-81
2023/10/22 03:12:37;;;;;;;1.88;0.80;;;11.80;99.90;;;;;;4246345;27;20042;-81
2023/10/22 03:14:38;;;;;;;2.55;0.93;;;11.70;99.90;;;;;;4243417;27;20422;-81
2023/10/22 03:16:39;;;;;;;3.75;1.20;;;11.80;99.90;;;;;;4248021;27;20046;-81
2023/10/22 03:18:40;;;;;;;1.23;0.90;;;11.80;99.90;;;;;;4232555;27;20118;-81
2023/10/22 03:20:42;;;;;;;1.70;1.02;;;11.70;99.90;;;;;;4246794;27;20046;-81
2023/10/22 03:22:43;;;;;;;3.83;1.42;;;11.70;99.90;;;;;;4231630;27;20088;-81
2023/10/22 03:24:48;;;;;;;5.47;0.95;;;11.70;99.90;;;;;;4246978;27;20039;-81
2023/10/22 03:26:49;;;;;;;5.22;1.10;;;11.70;99.90;;;;;;4230968;28;20065;-81
2023/10/22 03:28:51;;;;;;;3.47;1.13;;;11.70;99.90;;;;;;4230670;28;20123;-81
2023/10/22 03:30:52;;;;;;;5.72;1.70;;;11.70;99.90;;;;;;4247671;28;20035;-81
2023/10/22 03:32:55;;;;;;;6.00;1.30;;;11.70;99.90;;;;;;4230707;28;20040;-82
2023/10/22 03:34:56;;;;;;;4.25;1.88;;;11.70;99.90;;;;;;4228817;28;20492;-81
2023/10/22 03:36:57;;;;;;;4.80;0.82;;;11.70;99.90;;;;;;4231868;28;20043;-82
2023/10/22 03:38:58;;;;;;;2.78;1.25;;;11.80;99.90;;;;;;4246808;28;20116;-81
2023/10/22 03:41:03;;;;;;;3.42;1.00;;;11.70;99.90;;;;;;4231780;28;20485;-81
2023/10/22 03:43:05;;;;;;;4.88;1.50;;;11.80;99.90;;;;;;4245722;28;20403;-81
2023/10/22 03:45:06;;;;;;;3.20;0.73;;;11.70;99.90;;;;;;4233101;28;20047;-80
2023/10/22 03:47:07;;;;;;;5.47;1.27;;;11.70;99.90;;;;;;4244613;28;20093;-81
2023/10/22 03:49:08;;;;;;;3.40;1.35;;;11.70;99.90;;;;;;4233127;28;20651;-81
2023/10/22 03:51:09;;;;;;;6.25;1.02;;;11.80;99.90;;;;;;4209905;28;20545;-81
2023/10/22 03:53:09;;;;;;;6.22;1.35;;;11.70;99.90;;;;;;4221618;28;20077;-80
2023/10/22 03:55:10;;;;;;;3.90;0.80;;;11.80;99.90;;;;;;4237364;27;20032;-80
2023/10/22 03:57:11;;;;;;;4.05;1.05;;;11.80;99.90;;;;;;4235387;28;20115;-81
2023/10/22 03:59:12;;;;;;;1.73;0.80;;;11.80;99.90;;;;;;4226326;28;20157;-81
2023/10/22 04:01:12;;;;;;;3.08;1.40;;;11.80;99.90;;;;;;4236089;28;20749;-81
2023/10/22 04:03:13;;;;;;;4.95;0.88;;;11.80;99.90;;;;;;4224539;28;20039;-81
2023/10/22 04:05:15;;;;;;;2.05;0.98;;;11.80;99.90;;;;;;4228801;28;20043;-81
2023/10/22 04:07:16;;;;;;;2.55;0.70;;;11.80;99.90;;;;;;4231648;28;20040;-81
2023/10/22 04:09:16;;;;;;;1.83;0.73;;;11.90;99.90;;;;;;4221616;28;20039;-81
2023/10/22 04:11:20;;;;;;;3.72;1.10;;;11.90;99.90;;;;;;4223417;28;20549;-81
2023/10/22 04:13:21;;;;;;;4.65;0.93;;;11.40;99.90;;;;;;4233555;28;20035;-81
2023/10/22 04:15:22;;;;;;;3.13;0.70;;;11.90;99.90;;;;;;4234061;28;20046;-81
2023/10/22 04:17:23;;;;;;;2.17;0.70;;;11.50;99.90;;;;;;4229344;28;20072;-81
2023/10/22 04:19:24;;;;;;;4.25;1.10;;;11.90;99.90;;;;;;4221775;28;20113;-81
2023/10/22 04:21:24;;;;;;;1.75;0.70;;;11.80;99.90;;;;;;4228655;27;20547;-81
2023/10/22 04:23:25;;;;;;;2.13;0.85;;;11.90;99.90;;;;;;4223078;28;20035;-80
2023/10/22 04:25:28;;;;;;;5.85;1.40;;;11.90;99.90;;;;;;4229716;28;20833;-81
2023/10/22 04:27:28;;;;;;;3.85;0.80;;;11.80;99.90;;;;;;4222000;28;20048;-81
2023/10/22 04:29:29;;;;;;;2.10;0.73;;;11.90;99.90;;;;;;4228857;28;20126;-80
2023/10/22 04:31:31;;;;;;;3.75;0.93;;;11.80;99.90;;;;;;4223177;28;20684;-81
2023/10/22 04:33:31;;;;;;;3.30;0.80;;;11.90;99.90;;;;;;4219132;28;20063;-81
2023/10/22 04:35:33;;;;;;;2.13;0.70;;;11.90;99.90;;;;;;4223279;28;20047;-81
2023/10/22 04:37:34;;;;;;;5.07;0.77;;;11.80;99.90;;;;;;4226261;28;20474;-81
2023/10/22 04:39:35;;;;;;;2.95;0.68;;;11.80;99.90;;;;;;4222600;28;20085;-81
2023/10/22 04:41:36;;;;;;;3.33;0.98;;;11.90;99.90;;;;;;4224234;28;20511;-81
2023/10/22 04:43:37;;;;;;;0.55;0.50;;;11.80;99.90;;;;;;4226875;28;20153;-81
2023/10/22 04:45:45;;;;;;;1.90;0.60;;;11.80;99.90;;;;;;4223289;28;20140;-81
2023/10/22 04:47:45;;;;;;;0.68;0.68;;;11.80;99.90;;;;;;4225522;28;20821;-79
2023/10/22 04:49:47;;;;;;;2.83;1.15;;;11.80;99.90;;;;;;4216760;27;20044;-81
2023/10/22 04:51:49;;;;;;;1.08;0.60;;;11.80;99.90;;;;;;4243283;27;20090;-80
2023/10/22 04:53:49;;;;;;;1.88;0.45;;;11.80;99.90;;;;;;4223941;28;20048;-81
2023/10/22 04:55:58;;;;;;;0.47;0.32;;;11.80;99.90;;;;;;4241495;27;20088;-80
2023/10/22 04:58:00;;;;;;;0.98;0.68;;;11.80;99.90;;;;;;4243049;27;20051;-81
2023/10/22 05:00:01;;;;;;;0.85;0.47;;;11.80;99.90;;;;;;4239739;27;20052;-81
2023/10/22 05:02:02;;;;;;;0.77;0.77;;;11.80;99.90;;;;;;4242728;27;20471;-81
2023/10/22 05:04:03;;;;;;;0.60;0.47;;;11.80;99.90;;;;;;4239264;27;20058;-81
2023/10/22 05:06:06;;;;;;;0.93;0.52;;;11.90;99.90;;;;;;4243541;27;20527;-81
2023/10/22 05:08:07;;;;;;;0.65;0.52;;;11.80;99.90;;;;;;4238768;27;20035;-80
2023/10/22 05:10:08;;;;;;;1.77;0.50;;;11.80;99.90;;;;;;4225826;28;20065;-80
2023/10/22 05:12:10;;;;;;;1.20;0.40;;;11.90;99.90;;;;;;4250172;27;20039;-81
2023/10/22 05:14:10;;;;;;;1.30;0.40;;;11.90;99.90;;;;;;4238559;27;20058;-81
2023/10/22 05:16:11;;;;;;;1.75;0.73;;;11.80;99.90;;;;;;4243825;27;20039;-81
2023/10/22 05:18:12;;;;;;;4.85;0.50;;;11.90;99.90;;;;;;4238208;27;20066;-81
2023/10/22 05:20:13;;;;;;;0.50;0.50;;;11.90;99.90;;;;;;4244618;27;20054;-81
2023/10/22 05:22:14;;;;;;;0.95;0.55;;;11.80;99.90;;;;;;4237838;27;20043;-81
2023/10/22 05:24:15;;;;;;;1.27;0.50;;;11.90;99.90;;;;;;4244990;27;20047;-81
2023/10/22 05:26:16;;;;;;;1.00;0.90;;;11.90;99.90;;;;;;4236980;27;20048;-80
2023/10/22 05:28:17;;;;;;;0.82;0.70;;;11.90;99.90;;;;;;4244887;27;20078;-81
2023/10/22 05:30:17;;;;;;;0.80;0.77;;;11.90;99.90;;;;;;4236953;27;20050;-81
2023/10/22 05:32:18;;;;;;;1.60;1.10;;;11.90;99.90;;;;;;4245026;27;20456;-81
2023/10/22 05:34:19;;;;;;;1.40;1.08;;;11.90;99.90;;;;;;4236820;27;20479;-81
2023/10/22 05:36:21;;;;;;;1.65;1.10;;;11.90;99.90;;;;;;4227204;28;20132;-80
2023/10/22 05:38:21;;;;;;;1.50;1.10;;;12.00;99.90;;;;;;4236168;27;20040;-81
2023/10/22 05:40:22;;;;;;;1.73;1.20;;;12.00;99.90;;;;;;4245637;27;20096;-81
2023/10/22 05:42:23;;;;;;;2.45;1.42;;;12.00;99.90;;;;;;4236237;27;20032;-81
2023/10/22 05:44:24;;;;;;;3.78;1.80;;;12.00;99.90;;;;;;4240011;27;20070;-81
2023/10/22 05:46:32;;;;;;;2.55;1.65;;;12.00;99.90;;;;;;4244679;27;20096;-80
2023/10/22 05:48:33;;;;;;;2.92;1.85;;;12.00;99.90;;;;;;4228384;28;20075;-81
2023/10/22 05:50:38;;;;;;;6.03;2.10;;;12.00;99.90;;;;;;4249209;27;20043;-80
2023/10/22 05:52:38;;;;;;;3.67;1.85;;;12.10;99.90;;;;;;4215441;28;20055;-81
2023/10/22 05:54:39;;;;;;;3.45;1.98;;;12.10;99.90;;;;;;4229403;28;20539;-81
2023/10/22 05:56:40;;;;;;;2.53;1.85;;;12.00;99.90;;;;;;4233480;27;20487;-81
2023/10/22 05:58:41;;;;;;;4.28;2.00;;;11.80;99.90;;;;;;4229301;28;20043;-81
2023/10/22 06:00:48;;;;;;;5.32;2.20;;;12.10;99.90;;;;;;4215071;28;20044;-81
2023/10/22 06:02:49;;;;;;;3.83;2.05;;;12.10;99.90;;;;;;4248890;27;20171;-81
2023/10/22 06:04:49;;;;;;;2.40;1.90;;;12.10;99.90;;;;;;4213653;28;20491;-82
2023/10/22 06:06:50;;;;;;;4.78;2.42;;;12.20;99.90;;;;;;4235709;27;20050;-81
2023/10/22 06:08:52;;;;;;;3.88;2.42;;;12.20;99.90;;;;;;4249106;27;20053;-81
2023/10/22 06:10:53;;;;;;;3.45;2.17;;;12.20;99.90;;;;;;4239914;27;20049;-81
2023/10/22 06:12:54;;;;;;;9.85;2.30;;;12.20;99.90;;;;;;4230164;28;20062;-81
2023/10/22 06:14:55;;;;;;;2.90;1.90;;;12.20;99.90;;;;;;4247183;27;20044;-81
2023/10/22 06:16:55;;;;;;;3.75;1.95;;;12.20;99.90;;;;;;4232653;27;20048;-81
2023/10/22 06:18:57;;;;;;;3.63;2.00;;;12.20;99.90;;;;;;4248120;27;20047;-82
2023/10/22 06:20:57;;;;;;;2.05;1.45;;;12.20;99.90;;;;;;4215268;28;20062;-81
2023/10/22 06:22:58;;;;;;;1.77;1.30;;;12.20;99.90;;;;;;4229358;28;20143;-81
2023/10/22 06:24:59;;;;;;;1.00;0.70;;;12.30;99.90;;;;;;4214587;28;20056;-81
2023/10/22 06:27:00;;;;;;;1.85;0.32;;;12.20;99.90;;;;;;4229090;28;20502;-81
2023/10/22 06:29:01;;;;;;;0.28;0.20;;;12.20;99.90;;;;;;4233217;27;20046;-81
2023/10/22 06:31:12;;;;;;;0.70;0.43;;;12.20;99.90;;;;;;4247200;27;20047;-81
2023/10/22 06:33:13;;;;;;;0.80;0.40;;;12.10;99.90;;;;;;4234763;27;20039;-81
2023/10/22 06:35:13;;;;;;;0.50;0.40;;;12.10;99.90;;;;;;4226692;28;20105;-80
2023/10/22 06:37:14;;;;;;;1.45;0.50;;;12.00;99.90;;;;;;4234486;27;20084;-80
2023/10/22 06:39:16;;;;;;;0.88;0.40;;;12.00;99.90;;;;;;4244838;27;20043;-81
2023/10/22 06:41:20;;;;;;;1.40;0.55;;;11.90;99.90;;;;;;4235414;27;20054;-81
2023/10/22 06:43:21;;;;;;;1.17;0.65;;;11.90;99.90;;;;;;4243948;27;20107;-80
2023/10/22 06:45:22;;;;;;;5.65;0.80;;;11.80;99.90;;;;;;4235380;27;20045;-80
2023/10/22 06:47:23;;;;;;;3.13;0.80;;;11.80;99.90;;;;;;4243630;27;20840;-81
2023/10/22 06:49:24;;;;;;;3.25;0.80;;;11.80;99.90;;;;;;4236227;27;20043;-80
2023/10/22 06:51:24;;;;;;;3.45;0.77;;;11.80;99.90;;;;;;4243329;27;20108;-81
2023/10/22 06:53:25;;;;;;;5.45;0.63;;;11.70;99.90;;;;;;4236372;27;20046;-80
2023/10/22 06:55:26;;;;;;;3.53;0.90;;;11.70;99.90;;;;;;4242891;27;20078;-81
2023/10/22 06:57:27;;;;;;;5.10;1.00;;;11.70;99.90;;;;;;4236205;27;20487;-80
2023/10/22 06:59:28;;;;;;;6.50;0.80;;;11.70;99.90;;;;;;4242858;27;20042;-80
2023/10/22 07:01:29;;;;;;;2.60;0.90;;;11.70;99.90;;;;;;4236895;27;20411;-80
2023/10/22 07:03:30;;;;;;;3.83;0.63;;;11.70;99.90;;;;;;4242312;27;20456;-80
2023/10/22 07:05:31;;;;;;;2.30;0.80;;;11.70;99.90;;;;;;4237262;27;20196;-80
2023/10/22 07:07:32;;;;;;;3.05;1.10;;;11.60;99.90;;;;;;4244270;27;20054;-81
2023/10/22 07:09:33;;;;;;;3.40;0.47;;;11.70;99.90;;;;;;4221695;28;20503;-81
2023/10/22 07:11:35;;;;;;;5.20;0.85;;;11.70;99.90;;;;;;4241450;27;20040;-81
2023/10/22 07:13:36;;;;;;;3.30;0.88;;;11.70;99.90;;;;;;4237497;27;20046;-81
2023/10/22 07:15:36;;;;;;;3.17;0.82;;;11.60;99.90;;;;;;4223152;28;20044;-81
2023/10/22 07:17:38;;;;;;;2.83;0.88;;;11.60;99.90;;;;;;4237902;27;20130;-80
2023/10/22 07:19:39;;;;;;;1.90;0.85;;;11.60;99.90;;;;;;4240852;27;20044;-80
2023/10/22 07:21:39;;;;;;;4.40;1.15;;;11.70;99.90;;;;;;4238090;27;20096;-81
2023/10/22 07:23:40;;;;;;;2.50;0.77;;;11.70;99.90;;;;;;4240133;27;20077;-80
2023/10/22 07:25:41;;;;;;;5.75;0.90;;;11.70;99.90;;;;;;4238098;27;20763;-80
2023/10/22 07:27:42;;;;;;;4.13;1.38;;;11.70;99.90;;;;;;4222290;28;20043;-80
2023/10/22 07:29:42;;;;;;;5.85;1.25;;;11.70;99.90;;;;;;4238074;28;20068;-80
2023/10/22 07:31:44;;;;;;;2.13;1.00;;;11.70;99.90;;;;;;4240226;28;20453;-80
2023/10/22 07:33:44;;;;;;;2.97;0.90;;;11.70;99.90;;;;;;4220402;28;20489;-80
2023/10/22 07:35:57;;;;;;;3.58;0.88;;;11.70;99.90;;;;;;4221634;28;20063;-81
2023/10/22 07:37:58;;;;;;;5.82;1.40;;;11.70;99.90;;;;;;4240241;28;20486;-81
2023/10/22 07:39:59;;;;;;;4.95;1.25;;;11.70;99.90;;;;;;4219786;28;20048;-85
2023/10/22 07:42:00;;;;;;;11.05;1.50;;;11.80;99.90;;;;;;4240316;28;20088;-81
2023/10/22 07:44:00;;;;;;;5.75;1.35;;;11.80;99.90;;;;;;4237635;28;20808;-81
2023/10/22 07:46:01;;;;;;;6.45;1.50;;;11.80;99.90;;;;;;4241094;28;20089;-81
2023/10/22 07:48:04;;;;;;;3.38;0.93;;;11.40;99.90;;;;;;4237068;28;20036;-81
2023/10/22 07:50:06;;;;;;;4.45;1.10;;;11.80;99.90;;;;;;4241508;27;20043;-80
2023/10/22 07:52:07;;;;;;;8.25;1.60;;;11.70;99.90;;;;;;4237790;28;20089;-80
2023/10/22 07:54:08;;;;;;;4.70;1.25;;;11.70;99.90;;;;;;4223854;28;20042;-80
2023/10/22 07:56:10;;;;;;;5.88;0.85;;;11.70;99.90;;;;;;4236715;28;20081;-81
2023/10/22 07:58:11;;;;;;;4.00;1.58;;;11.70;99.90;;;;;;4242430;28;20047;-81
2023/10/22 08:00:14;;;;;;;3.13;1.02;;;11.70;99.90;;;;;;4235659;28;20506;-81
2023/10/22 08:02:14;;;;;;;6.95;1.60;;;11.70;99.90;;;;;;4242788;28;20035;-81
2023/10/22 08:04:15;;;;;;;4.20;1.20;;;11.60;99.90;;;;;;4235661;28;20040;-81
2023/10/22 08:06:16;;;;;;;2.88;1.00;;;11.60;99.90;;;;;;4228056;28;20048;-81
2023/10/22 08:08:17;;;;;;;2.45;0.82;;;11.50;99.90;;;;;;4247303;28;20122;-81
2023/10/22 08:10:17;;;;;;;2.72;0.90;;;11.50;99.90;;;;;;4247230;28;20395;-81
2023/10/22 08:12:18;;;;;;;3.42;0.90;;;11.50;99.90;;;;;;4235237;28;20108;-82
2023/10/22 08:14:19;;;;;;;7.45;1.23;;;11.50;99.90;;;;;;4243229;28;20077;-81
2023/10/22 08:16:26;;;;;;;6.22;1.20;;;11.50;99.90;;;;;;4216540;28;20071;-81
2023/10/22 08:18:27;;;;;;;3.20;1.70;;;11.60;99.90;;;;;;4244458;28;20047;-81
2023/10/22 08:20:28;;;;;;;7.82;2.30;;;11.60;99.90;;;;;;4233162;28;20035;-81
2023/10/22 08:22:29;;;;;;;3.45;2.05;;;11.60;99.90;;;;;;4244603;28;20043;-81
2023/10/22 08:24:30;;;;;;;6.95;1.95;;;11.60;99.90;;;;;;4232764;27;20040;-82
2023/10/22 08:26:31;;;;;;;9.25;2.33;;;11.70;99.90;;;;;;4238060;28;20035;-81
2023/10/22 08:28:32;;;;;;;4.30;1.85;;;11.60;99.90;;;;;;4244927;28;20043;-82
2023/10/22 08:30:33;;;;;;;5.53;1.55;;;11.70;99.90;;;;;;4232668;28;20107;-82
2023/10/22 08:32:34;;;;;;;11.82;1.70;;;11.70;99.90;;;;;;4244630;28;20047;-82
2023/10/22 08:34:35;;;;;;;4.45;1.50;;;11.70;99.90;;;;;;4232476;28;20476;-82
2023/10/22 08:36:35;;;;;;;4.25;1.25;;;11.80;99.90;;;;;;4227250;28;20054;-83
2023/10/22 08:38:37;;;;;;;6.78;1.60;;;11.80;99.90;;;;;;4234600;27;20104;-82
2023/10/22 08:40:41;;;;;;;9.02;2.28;;;11.90;99.90;;;;;;4248673;27;20099;-83
2023/10/22 08:42:44;;;;;;;6.75;1.95;;;11.90;99.90;;;;;;4233689;27;20050;-82
2023/10/22 08:44:48;;;;;;;7.50;2.47;;;12.00;99.90;;;;;;4249751;27;20080;-82
2023/10/22 08:46:49;;;;;;;3.03;1.10;;;12.00;99.90;;;;;;4233258;28;20058;-82
2023/10/22 08:48:50;;;;;;;4.93;1.35;;;12.10;99.90;;;;;;4233261;28;20043;-82
2023/10/22 08:50:52;;;;;;;5.00;1.55;;;12.10;99.90;;;;;;4247830;27;20491;-82
2023/10/22 08:52:52;;;;;;;3.88;1.38;;;12.10;99.90;;;;;;4230359;28;20032;-81
2023/10/22 08:54:53;;;;;;;5.60;1.40;;;12.10;99.90;;;;;;4233357;27;20050;-81
2023/10/22 08:56:55;;;;;;;3.65;1.20;;;12.20;99.90;;;;;;4231220;28;20051;-82
2023/10/22 08:59:00;;;;;;;7.90;1.63;;;12.20;99.90;;;;;;4235075;27;20052;-81
2023/10/22 09:01:01;;;;;;;10.30;1.50;;;12.20;99.90;;;;;;4249170;27;20404;-81
2023/10/22 09:03:03;;;;;;;3.53;0.90;;;12.20;99.90;;;;;;4246336;27;20083;-82
2023/10/22 09:05:06;;;;;;;8.52;1.45;;;12.30;99.90;;;;;;4248137;27;20035;-82
2023/10/22 09:07:06;;;;;;;5.03;0.82;;;12.30;99.90;;;;;;4243975;27;20047;-82
2023/10/22 09:09:07;;;;;;;4.70;0.90;;;12.30;99.90;;;;;;4237754;27;20105;-81
2023/10/22 09:11:13;;;;;;;9.00;1.48;;;12.30;99.90;;;;;;4224951;28;20132;-82
2023/10/22 09:13:22;;;;;;;4.70;1.08;;;12.30;99.90;;;;;;4246312;27;20036;-82
2023/10/22 09:15:23;;;;;;;3.53;1.33;;;12.30;99.90;;;;;;4249199;27;20043;-81
2023/10/22 09:17:25;;;;;;;3.75;1.25;;;12.40;99.90;;;;;;4247901;27;20057;-82
2023/10/22 09:19:46;;;;;;;5.75;1.00;;;12.40;99.90;;;;;;4247715;27;20043;-81
2023/10/22 09:21:47;;;;;;;4.88;1.05;;;12.40;99.90;;;;;;4241345;27;20518;-82
2023/10/22 09:24:06;;;;;;;5.53;1.13;;;12.40;99.90;;;;;;4240902;27;20054;-82
2023/10/22 09:26:08;;;;;;;;;;;12.50;99.90;;;;;;4255194;27;20039;-82
2023/10/22 09:28:21;;;;;;;3.45;0.80;;;12.50;99.90;;;;;;4255441;27;20292;-82
2023/10/22 09:30:29;;;;;;;4.68;0.82;;;12.50;99.90;;;;;;4236470;27;20112;-82
2023/10/22 09:32:30;;;;;;;2.85;0.80;;;12.60;99.90;;;;;;4246943;27;20035;-82
2023/10/22 09:34:32;;;;;;;1.52;0.70;;;12.60;99.90;;;;;;4235071;27;20399;-82
2023/10/22 09:36:54;;;;;;;2.45;0.50;;;12.60;99.90;;;;;;4247084;27;20415;-82
2023/10/22 09:39:04;;;;;;;2.75;0.60;;;12.60;99.90;;;;;;4233202;27;20040;-83
2023/10/22 09:41:05;;;;;;;8.93;0.80;;;12.70;99.90;;;;;;4247243;27;20050;-82
2023/10/22 09:43:07;;;;;;;3.03;0.63;;;12.80;99.90;;;;;;4239560;27;20419;-81
2023/10/22 09:45:08;;;;;;;2.72;0.70;;;12.90;99.90;;;;;;4238203;27;20075;-82
2023/10/22 09:47:09;;;;;;;7.53;1.02;;;12.90;99.90;;;;;;4227735;28;20063;-81
2023/10/22 09:49:12;;;;;;;1.50;0.65;;;13.00;99.90;;;;;;4233759;27;20047;-82
2023/10/22 09:51:15;;;;;;;5.13;0.60;;;13.10;99.90;;;;;;4227469;28;20052;-81
2023/10/22 09:53:17;;;;;;;4.68;0.70;;;13.50;99.90;;;;;;4235814;27;20047;-81
2023/10/22 09:55:20;;;;;;;4.03;0.80;;;14.10;99.90;;;;;;4245346;27;20483;-81
2023/10/22 09:57:29;;;;;;;3.47;0.50;;;14.50;99.90;;;;;;4237014;27;20042;-81
2023/10/22 09:59:32;;;;;;;3.20;0.75;;;14.90;99.90;;;;;;4248966;27;20039;-81
2023/10/22 10:01:34;;;;;;;6.05;1.25;;;15.30;99.90;;;;;;4242362;27;20195;-81
2023/10/22 10:03:37;;;;;;;3.75;0.88;;;15.50;99.90;;;;;;4238606;27;20061;-80
2023/10/22 10:05:38;;;;;;;2.10;0.63;;;15.70;99.90;;;;;;4224277;28;20044;-82
2023/10/22 10:07:39;;;;;;;1.33;0.50;;;16.10;99.90;;;;;;4233001;27;20547;-82
2023/10/22 10:09:42;;;;;;;7.05;1.80;;;16.30;99.90;;;;;;4228396;28;20112;-82
2023/10/22 10:11:43;;;;;;;7.43;0.60;;;16.40;99.90;;;;;;4247105;27;20099;-82
2023/10/22 10:13:44;;;;;;;1.70;0.40;;;16.40;99.90;;;;;;4239285;27;20040;-82
2023/10/22 10:15:58;;;;;;;5.10;1.02;;;16.50;99.90;;;;;;4237489;27;20047;-82
2023/10/22 10:18:01;;;;;;;6.22;0.57;;;;;;;;;;4240243;27;20444;-82
2023/10/22 10:20:20;;;;;;;2.97;0.73;;;;;;;;;;4246715;27;20075;-82
2023/10/22 10:22:40;;;;;;;2.58;0.50;;;;;;;;;;4234299;27;20086;-82
2023/10/22 10:24:43;;;;;;;1.67;0.95;;;;;;;;;;4246091;27;20046;-82
2023/10/22 10:26:45;;;;;;;1.80;0.73;;;;;;;;;;4214086;28;20058;-82
2023/10/22 10:28:50;;;;;;;3.88;0.80;;;;;;;;;;4248318;27;20483;-82
2023/10/22 10:30:51;;;;;;;4.85;1.02;;;;;;;;;;4231913;27;20046;-82
2023/10/22 10:32:53;;;;;;;2.60;0.65;;;;;;;;;;4247867;27;20479;-82
2023/10/22 10:35:00;;;;;;;4.13;0.68;;;;;;;;;;4232339;27;20184;-81
2023/10/22 10:37:11;;;;;;;3.03;0.50;;;;;;;;;;4246712;27;20130;-82